Time;durP1;ratioP1;P1;durP2;ratioP2;P2;SDS_P1;SDS_P2;PMS_P1;PMS_P2;Temp;Humidity;BMP_temperature;BMP_pressure;BME280_temperature;BME280_humidity;BME280_pressure;Samples;Min_cycle;Max_cycle;Signal;HPM_P1;HPM_P2
2024/04/21 00:01:26;;;;;;;4.93;4.43;;;;;;;9.36;63.84;101685.41;5312801;26;20219;-78
2024/04/21 00:03:52;;;;;;;4.90;4.50;;;;;;;9.43;62.72;101683.84;5313735;27;20226;-76
2024/04/21 00:06:17;;;;;;;5.13;4.60;;;;;;;9.26;64.12;101683.34;5311518;27;20568;-77
2024/04/21 00:08:42;;;;;;;5.70;5.20;;;;;;;9.32;63.83;101680.91;5311728;27;20225;-75
2024/04/21 00:11:07;;;;;;;6.43;5.10;;;;;;;9.26;64.39;101676.41;5311064;27;20602;-77
2024/04/21 00:13:33;;;;;;;5.30;4.80;;;;;;;9.43;63.40;101671.72;5311297;26;20233;-77
2024/04/21 00:15:58;;;;;;;5.23;4.50;;;;;;;9.34;63.54;101668.84;5310900;26;20272;-76
2024/04/21 00:18:24;;;;;;;5.30;4.80;;;;;;;9.10;64.16;101667.25;5311282;27;20237;-76
2024/04/21 00:20:50;;;;;;;5.47;4.97;;;;;;;9.09;64.26;101665.50;5311360;26;20230;-76
2024/04/21 00:23:15;;;;;;;5.13;4.73;;;;;;;9.35;63.41;101668.00;5311007;27;20761;-76
2024/04/21 00:25:41;;;;;;;4.90;4.50;;;;;;;9.21;63.94;101671.91;5309395;27;20234;-76
2024/04/21 00:28:06;;;;;;;4.80;4.40;;;;;;;9.44;63.46;101667.38;5310639;27;20230;-76
2024/04/21 00:30:32;;;;;;;4.93;4.53;;;;;;;9.38;63.65;101665.50;5310477;26;20323;-77
2024/04/21 00:32:58;;;;;;;5.10;4.70;;;;;;;9.17;63.67;101673.53;5310849;26;20265;-77
2024/04/21 00:35:25;;;;;;;4.87;4.37;;;;;;;9.68;62.82;101675.03;5310965;26;20437;-76
2024/04/21 00:37:50;;;;;;;5.10;4.70;;;;;;;9.34;63.26;101674.06;5311261;26;20214;-76
2024/04/21 00:40:16;;;;;;;5.77;5.27;;;;;;;9.59;62.80;101677.34;5311575;27;20481;-76
2024/04/21 00:42:41;;;;;;;5.00;4.50;;;;;;;9.22;63.12;101679.75;5311281;27;20217;-76
2024/04/21 00:45:06;;;;;;;5.53;5.00;;;;;;;9.04;63.78;101685.28;5312981;26;20222;-76
2024/04/21 00:47:33;;;;;;;5.67;4.90;;;;;;;8.99;63.61;101679.06;5314115;27;20272;-77
2024/04/21 00:49:58;;;;;;;5.50;5.00;;;;;;;9.21;63.62;101679.72;5313642;26;20735;-77
2024/04/21 00:52:24;;;;;;;11.70;10.70;;;;;;;9.36;63.17;101681.91;5314171;26;20508;-76
2024/04/21 00:54:50;;;;;;;5.30;4.80;;;;;;;9.41;63.07;101686.41;5313952;26;20218;-77
2024/04/21 00:57:15;;;;;;;5.90;5.30;;;;;;;9.24;63.13;101692.81;5314061;26;20324;-77
2024/04/21 00:59:41;;;;;;;5.83;5.23;;;;;;;9.32;62.88;101693.91;5313767;26;20477;-76
2024/04/21 01:02:07;;;;;;;6.00;5.40;;;;;;;9.21;63.26;101697.94;5293563;27;20717;-76
2024/04/21 01:04:33;;;;;;;5.67;5.17;;;;;;;9.16;63.43;101696.91;5279844;27;20893;-76
2024/04/21 01:06:58;;;;;;;5.60;5.10;;;;;;;9.12;63.47;101708.94;5279623;27;20431;-77
2024/04/21 01:09:24;;;;;;;6.47;5.87;;;;;;;9.14;63.16;101706.38;5279738;27;20235;-76
2024/04/21 01:11:50;;;;;;;5.73;5.20;;;;;;;9.15;62.92;101706.44;5280759;27;20222;-76
2024/04/21 01:14:15;;;;;;;5.93;5.43;;;;;;;9.27;62.68;101703.34;5278598;27;20231;-76
2024/04/21 01:16:40;;;;;;;5.53;5.00;;;;;;;9.02;62.91;101710.34;5279691;27;20510;-77
2024/04/21 01:19:05;;;;;;;6.20;5.60;;;;;;;9.01;63.34;101721.63;5279270;27;20345;-77
2024/04/21 01:21:31;;;;;;;6.60;6.00;;;;;;;8.91;63.31;101715.22;5279762;27;20750;-76
2024/04/21 01:23:56;;;;;;;6.50;5.90;;;;;;;9.12;62.89;101718.44;5279961;27;20266;-77
2024/04/21 01:26:21;;;;;;;6.13;5.63;;;;;;;9.02;62.56;101717.28;5280203;27;20254;-77
2024/04/21 01:28:47;;;;;;;6.23;5.63;;;;;;;9.07;62.90;101716.59;5277541;27;20220;-76
2024/04/21 01:31:12;;;;;;;5.93;5.43;;;;;;;9.02;62.65;101714.69;5279736;27;20218;-76
2024/04/21 01:33:37;;;;;;;6.13;5.53;;;;;;;8.91;63.17;101715.22;5280009;27;20606;-76
2024/04/21 01:36:03;;;;;;;5.90;5.07;;;;;;;8.68;63.56;101724.88;5279758;27;20227;-77
2024/04/21 01:38:28;;;;;;;6.60;5.93;;;;;;;8.88;63.44;101719.44;5279977;27;20224;-76
2024/04/21 01:40:54;;;;;;;6.00;5.50;;;;;;;9.09;62.99;101722.75;5278862;27;20285;-76
2024/04/21 01:43:20;;;;;;;6.50;5.90;;;;;;;9.28;62.28;101718.09;5279866;27;20227;-76
2024/04/21 01:45:45;;;;;;;6.60;6.00;;;;;;;9.10;63.17;101721.00;5279485;27;20862;-74
2024/04/21 01:48:10;;;;;;;5.73;5.23;;;;;;;8.94;62.74;101714.44;5279826;27;20345;-75
2024/04/21 01:50:36;;;;;;;6.60;6.00;;;;;;;8.58;63.34;101725.41;5279253;27;20593;-76
2024/04/21 01:53:01;;;;;;;7.97;5.77;;;;;;;8.71;63.88;101722.38;5279928;27;20235;-76
2024/04/21 01:55:26;;;;;;;6.57;5.87;;;;;;;8.83;62.85;101727.09;5279530;27;20265;-76
2024/04/21 01:57:51;;;;;;;6.57;5.93;;;;;;;8.63;62.79;101734.22;5278230;27;20227;-76
2024/04/21 02:00:17;;;;;;;6.23;5.70;;;;;;;8.79;63.42;101739.94;5280692;27;20235;-76
2024/04/21 02:02:42;;;;;;;6.20;5.70;;;;;;;8.65;62.98;101735.16;5306857;27;20234;-75
2024/04/21 02:05:07;;;;;;;6.37;5.77;;;;;;;8.61;63.60;101745.44;5313877;27;20222;-76
2024/04/21 02:07:32;;;;;;;6.33;5.73;;;;;;;8.74;63.43;101748.47;5313232;27;20218;-77
2024/04/21 02:09:58;;;;;;;5.83;5.33;;;;;;;8.53;63.51;101751.22;5305627;22;20259;-76
2024/04/21 02:12:23;;;;;;;6.13;5.33;;;;;;;8.72;63.71;101752.72;5244913;27;20266;-76
2024/04/21 02:14:48;;;;;;;6.30;5.70;;;;;;;8.60;63.80;101754.91;5244858;27;20334;-76
2024/04/21 02:17:13;;;;;;;6.50;5.90;;;;;;;8.56;63.64;101759.13;5245074;27;20758;-74
2024/04/21 02:19:39;;;;;;;5.90;5.40;;;;;;;8.38;64.33;101759.34;5244851;27;20279;-76
2024/04/21 02:22:04;;;;;;;6.53;5.93;;;;;;;8.63;63.65;101760.22;5244794;27;20262;-75
2024/04/21 02:24:39;;;;;;;6.33;5.83;;;;;;;8.29;64.05;101768.53;5243016;27;20260;-75
2024/04/21 02:27:04;;;;;;;6.50;5.90;;;;;;;8.67;63.31;101771.63;5244965;27;20223;-74
2024/04/21 02:29:29;;;;;;;7.10;6.40;;;;;;;8.77;62.83;101778.91;5244516;27;20928;-74
2024/04/21 02:31:55;;;;;;;7.17;6.57;;;;;;;8.72;63.17;101789.13;5243170;27;20220;-76
2024/04/21 02:34:20;;;;;;;7.40;6.70;;;;;;;8.60;63.66;101783.50;5244489;27;20228;-73
2024/04/21 02:36:45;;;;;;;7.30;6.60;;;;;;;8.25;63.95;101798.69;5244775;27;20216;-73
2024/04/21 02:39:11;;;;;;;6.57;5.97;;;;;;;8.52;63.20;101793.63;5244491;27;20228;-74
2024/04/21 02:41:36;;;;;;;6.90;6.20;;;;;;;8.47;63.39;101802.09;5244675;27;20224;-75
2024/04/21 02:44:01;;;;;;;6.90;6.20;;;;;;;8.32;63.80;101802.41;5244470;27;20224;-74
2024/04/21 02:46:26;;;;;;;8.40;6.77;;;;;;;8.38;63.56;101797.44;5244755;27;20266;-75
2024/04/21 02:48:52;;;;;;;6.80;6.10;;;;;;;8.57;63.22;101801.59;5244861;27;20220;-74
2024/04/21 02:51:18;;;;;;;7.00;6.30;;;;;;;8.63;62.69;101801.81;5243070;27;20236;-76
2024/04/21 02:53:44;;;;;;;7.70;6.90;;;;;;;8.53;63.60;101810.13;5244953;27;20676;-75
2024/04/21 02:56:09;;;;;;;7.93;6.70;;;;;;;8.72;62.30;101807.31;5244458;27;20436;-75
2024/04/21 02:58:34;;;;;;;7.10;6.40;;;;;;;8.68;62.63;101805.44;5244707;27;20283;-76
2024/04/21 03:01:03;;;;;;;7.20;6.50;;;;;;;8.70;62.32;101813.31;5244361;27;20232;-74
2024/04/21 03:03:29;;;;;;;6.77;6.17;;;;;;;8.92;61.56;101817.53;5244426;27;20267;-76
2024/04/21 03:05:57;;;;;;;7.60;6.77;;;;;;;8.64;62.18;101813.09;5244864;27;20440;-75
2024/04/21 03:08:26;;;;;;;7.40;6.70;;;;;;;8.79;61.41;101823.16;5242795;27;20605;-75
2024/04/21 03:10:51;;;;;;;6.60;6.00;;;;;;;8.69;61.82;101822.81;5244369;27;21087;-75
2024/04/21 03:13:17;;;;;;;7.10;6.40;;;;;;;8.60;62.17;101822.50;5244473;27;20572;-75
2024/04/21 03:15:45;;;;;;;7.77;7.07;;;;;;;8.68;61.75;101827.97;5244478;27;20228;-75
2024/04/21 03:18:11;;;;;;;9.10;8.30;;;;;;;8.66;61.44;101825.34;5244345;27;20463;-74
2024/04/21 03:20:36;;;;;;;6.90;6.20;;;;;;;8.49;61.96;101829.06;5272246;27;20480;-75
2024/04/21 03:23:01;;;;;;;7.47;6.77;;;;;;;8.42;61.78;101833.97;5244414;27;20232;-75
2024/04/21 03:25:27;;;;;;;6.80;6.20;;;;;;;8.53;61.37;101830.94;5270623;27;20702;-75
2024/04/21 03:27:52;;;;;;;6.70;6.00;;;;;;;8.51;61.54;101828.28;5243977;27;20233;-75
2024/04/21 03:30:17;;;;;;;7.70;6.70;;;;;;;8.70;60.92;101837.59;5243938;27;20797;-75
2024/04/21 03:32:42;;;;;;;7.93;7.20;;;;;;;8.59;60.87;101837.22;5270619;27;20261;-74
2024/04/21 03:35:08;;;;;;;7.83;6.60;;;;;;;8.67;60.93;101839.19;5244289;27;20612;-75
2024/04/21 03:37:33;;;;;;;7.83;7.03;;;;;;;8.87;60.51;101842.50;5243894;27;20221;-75
2024/04/21 03:40:00;;;;;;;8.57;7.70;;;;;;;8.64;61.47;101850.38;5243672;27;20238;-74
2024/04/21 03:42:25;;;;;;;12.13;10.83;;;;;;;8.82;60.99;101855.34;5244032;27;20271;-75
2024/04/21 03:44:50;;;;;;;12.57;11.33;;;;;;;8.59;61.53;101857.13;5244122;27;20840;-75
2024/04/21 03:47:16;;;;;;;8.40;7.60;;;;;;;8.75;61.36;101864.66;5243485;27;20232;-75
2024/04/21 03:49:41;;;;;;;7.10;6.40;;;;;;;8.47;60.97;101867.97;5243270;27;20286;-75
2024/04/21 03:52:06;;;;;;;8.00;7.20;;;;;;;8.56;60.95;101868.28;5243603;27;20220;-75
2024/04/21 03:54:32;;;;;;;8.07;7.10;;;;;;;8.63;61.18;101868.53;5241658;27;20259;-75
2024/04/21 03:57:00;;;;;;;7.60;6.90;;;;;;;8.46;61.01;101873.09;5243432;27;20266;-75
2024/04/21 03:59:25;;;;;;;7.60;6.80;;;;;;;8.51;60.43;101874.16;5243077;27;20279;-75
2024/04/21 04:01:50;;;;;;;6.80;6.20;;;;;;;8.27;61.03;101877.59;5243072;27;20931;-75
2024/04/21 04:04:15;;;;;;;7.43;6.67;;;;;;;8.45;60.49;101881.72;5243307;27;20333;-75
2024/04/21 04:06:41;;;;;;;6.70;6.10;;;;;;;8.38;60.98;101880.59;5243449;27;20699;-75
2024/04/21 04:09:06;;;;;;;6.40;5.80;;;;;;;8.32;60.60;101886.47;5241775;27;20220;-75
2024/04/21 04:11:31;;;;;;;7.53;6.73;;;;;;;8.53;59.92;101886.38;5243580;27;20238;-74
2024/04/21 04:13:56;;;;;;;6.10;5.60;;;;;;;8.62;59.78;101877.13;5243434;27;20338;-75
2024/04/21 04:16:22;;;;;;;7.10;6.40;;;;;;;8.51;59.61;101879.34;5241503;27;20228;-75
2024/04/21 04:18:47;;;;;;;7.50;6.70;;;;;;;8.60;59.81;101884.88;5242656;27;20271;-74
2024/04/21 04:21:12;;;;;;;7.93;6.30;;;;;;;8.62;60.16;101888.44;5243227;27;20727;-74
2024/04/21 04:23:38;;;;;;;6.63;5.93;;;;;;;8.62;59.88;101893.63;5242712;27;20232;-74
2024/04/21 04:26:03;;;;;;;6.37;5.77;;;;;;;8.51;59.38;101898.44;5241950;27;20626;-76
2024/04/21 04:28:28;;;;;;;8.30;7.03;;;;;;;8.70;59.79;101906.91;5243074;27;20288;-76
2024/04/21 04:30:53;;;;;;;7.10;6.40;;;;;;;8.67;59.57;101907.66;5243056;27;20279;-76
2024/04/21 04:33:19;;;;;;;6.70;6.10;;;;;;;8.43;59.92;101910.25;5243362;27;20580;-76
2024/04/21 04:35:44;;;;;;;7.27;6.57;;;;;;;8.62;59.17;101914.44;5243543;27;20304;-76
2024/04/21 04:38:09;;;;;;;7.23;6.57;;;;;;;8.61;59.48;101915.25;5241273;27;20725;-75
2024/04/21 04:40:36;;;;;;;6.87;6.17;;;;;;;8.39;59.88;101917.03;5243466;27;20236;-76
2024/04/21 04:43:01;;;;;;;7.90;6.70;;;;;;;8.47;59.38;101930.34;5243622;27;20227;-74
2024/04/21 04:45:26;;;;;;;6.30;5.60;;;;;;;8.56;59.45;101930.66;5242830;27;21067;-76
2024/04/21 04:47:52;;;;;;;7.17;6.47;;;;;;;8.48;59.56;101926.03;5242984;27;20753;-76
2024/04/21 04:50:17;;;;;;;8.77;5.80;;;;;;;8.58;59.19;101926.44;5241504;27;20240;-76
2024/04/21 04:52:42;;;;;;;7.40;6.70;;;;;;;8.53;59.10;101934.88;5243192;27;20267;-75
2024/04/21 04:55:08;;;;;;;7.03;6.33;;;;;;;8.74;59.04;101930.47;5241387;27;20646;-75
2024/04/21 04:57:33;;;;;;;6.50;5.90;;;;;;;8.70;58.87;101941.59;5242911;27;20236;-75
2024/04/21 04:59:59;;;;;;;6.93;6.23;;;;;;;8.83;58.83;101944.63;5242753;27;20290;-75
2024/04/21 05:02:24;;;;;;;6.50;5.90;;;;;;;8.81;58.50;101947.19;5221276;27;20237;-75
2024/04/21 05:04:49;;;;;;;7.80;5.90;;;;;;;8.93;58.65;101947.63;5209817;27;20268;-75
2024/04/21 05:07:15;;;;;;;7.00;6.20;;;;;;;8.94;58.94;101945.91;5209934;27;20317;-75
2024/04/21 05:09:40;;;;;;;7.63;6.93;;;;;;;8.84;59.19;101960.28;5209704;27;20232;-73
2024/04/21 05:12:06;;;;;;;6.97;6.30;;;;;;;8.82;58.96;101958.47;5209712;27;20570;-75
2024/04/21 05:14:31;;;;;;;7.20;6.30;;;;;;;8.92;58.61;101973.59;5209468;27;20576;-74
2024/04/21 05:16:56;;;;;;;7.07;6.27;;;;;;;9.05;58.77;101969.69;5209350;27;20590;-74
2024/04/21 05:19:22;;;;;;;7.77;6.17;;;;;;;9.16;58.64;101973.56;5209254;27;20287;-75
2024/04/21 05:21:47;;;;;;;7.67;6.37;;;;;;;9.05;58.48;101973.19;5209086;27;20272;-75
2024/04/21 05:24:12;;;;;;;7.37;6.67;;;;;;;9.13;58.68;101980.38;5208729;27;20279;-75
2024/04/21 05:26:38;;;;;;;6.70;6.00;;;;;;;9.11;58.71;101972.53;5208594;27;20577;-75
2024/04/21 05:29:03;;;;;;;7.00;6.30;;;;;;;9.15;58.66;101983.94;5208560;27;20337;-74
2024/04/21 05:31:28;;;;;;;6.97;6.27;;;;;;;9.21;57.91;101986.72;5210217;27;20225;-74
2024/04/21 05:33:54;;;;;;;6.60;6.00;;;;;;;9.34;57.92;101988.94;5212096;27;20236;-74
2024/04/21 05:36:19;;;;;;;7.20;6.37;;;;;;;9.09;57.62;102001.09;5210619;27;20336;-74
2024/04/21 05:38:44;;;;;;;7.60;6.83;;;;;;;9.23;57.38;101998.09;5211808;27;20662;-75
2024/04/21 05:41:10;;;;;;;7.10;6.40;;;;;;;9.43;57.15;102002.28;5212085;27;20316;-75
2024/04/21 05:43:35;;;;;;;6.90;6.30;;;;;;;9.38;57.27;102009.03;5212976;27;20618;-75
2024/04/21 05:46:01;;;;;;;7.43;6.20;;;;;;;9.68;56.69;102002.22;5211229;27;20606;-76
2024/04/21 05:48:27;;;;;;;7.23;6.53;;;;;;;9.87;55.75;102003.72;5209755;27;20237;-76
2024/04/21 05:50:52;;;;;;;6.57;5.80;;;;;;;9.92;56.55;102012.59;5212117;27;20490;-76
2024/04/21 05:53:17;;;;;;;9.33;6.37;;;;;;;9.62;55.47;102021.13;5212100;27;20229;-75
2024/04/21 05:55:43;;;;;;;6.87;6.17;;;;;;;9.66;55.56;102025.63;5210749;27;20380;-74
2024/04/21 05:58:08;;;;;;;6.13;5.50;;;;;;;10.05;55.36;102022.56;5210364;27;20251;-75
2024/04/21 06:00:33;;;;;;;6.30;5.67;;;;;;;10.00;54.44;102026.75;5212062;27;20241;-75
2024/04/21 06:02:58;;;;;;;7.60;5.57;;;;;;;9.58;55.84;102024.47;5241679;27;20567;-74
2024/04/21 06:05:24;;;;;;;6.40;5.80;;;;;;;9.66;54.78;102035.13;5244988;27;20262;-74
2024/04/21 06:07:49;;;;;;;5.93;5.33;;;;;;;9.44;54.28;102040.50;5242721;27;20593;-75
2024/04/21 06:10:14;;;;;;;7.37;5.50;;;;;;;9.66;54.66;102030.81;5244785;27;20238;-75
2024/04/21 06:12:39;;;;;;;6.10;5.50;;;;;;;9.65;54.18;102046.38;5244651;27;20334;-75
2024/04/21 06:15:05;;;;;;;7.30;6.60;;;;;;;10.08;54.00;102045.22;5243205;27;20232;-74
2024/04/21 06:17:30;;;;;;;6.73;6.00;;;;;;;10.26;52.88;102047.53;5244916;27;20271;-74
2024/04/21 06:19:56;;;;;;;7.17;6.43;;;;;;;10.65;52.32;102046.16;5244589;27;20240;-74
2024/04/21 06:22:21;;;;;;;5.20;4.47;;;;;;;10.41;51.88;102045.44;5244929;27;20224;-74
2024/04/21 06:24:46;;;;;;;5.40;4.90;;;;;;;10.19;52.50;102050.75;5244684;27;20220;-74
2024/04/21 06:27:11;;;;;;;5.43;4.93;;;;;;;10.40;51.91;102048.88;5244501;27;20271;-74
2024/04/21 06:29:37;;;;;;;5.63;4.90;;;;;;;10.50;52.09;102054.38;5244466;27;20617;-75
2024/04/21 06:32:03;;;;;;;5.20;4.60;;;;;;;10.90;52.33;102053.00;5245216;27;20220;-74
2024/04/21 06:34:29;;;;;;;5.93;4.60;;;;;;;11.07;51.62;102062.19;5245324;27;20232;-74
2024/04/21 06:36:54;;;;;;;5.60;4.40;;;;;;;11.04;51.15;102062.13;5243204;27;20508;-75
2024/04/21 06:39:19;;;;;;;7.53;4.50;;;;;;;10.09;50.69;102073.03;5244412;27;20711;-74
2024/04/21 06:41:46;;;;;;;5.20;4.70;;;;;;;10.51;50.83;102075.28;5243806;27;20229;-75
2024/04/21 06:44:11;;;;;;;5.00;4.07;;;;;;;10.91;50.38;102073.91;5244468;27;20616;-75
2024/04/21 06:46:37;;;;;;;5.00;4.50;;;;;;;11.04;49.50;102069.03;5244056;27;20455;-74
2024/04/21 06:49:02;;;;;;;6.23;4.63;;;;;;;10.87;48.20;102068.56;5243913;27;20240;-75
2024/04/21 06:51:27;;;;;;;5.30;4.80;;;;;;;10.70;48.30;102079.38;5244340;27;20327;-74
2024/04/21 06:53:54;;;;;;;5.40;4.90;;;;;;;10.43;48.17;102082.88;5244405;27;20275;-75
2024/04/21 06:56:19;;;;;;;6.33;4.80;;;;;;;10.53;46.87;102075.38;5242523;27;20244;-74
2024/04/21 06:58:45;;;;;;;5.90;5.30;;;;;;;10.43;47.72;102082.88;5244192;27;20524;-75
2024/04/21 07:01:10;;;;;;;5.60;4.87;;;;;;;10.21;47.99;102083.00;5239571;27;20257;-76
2024/04/21 07:03:35;;;;;;;5.63;5.03;;;;;;;11.20;46.38;102086.91;5211352;27;20224;-75
2024/04/21 07:06:01;;;;;;;5.67;5.10;;;;;;;11.41;49.01;102086.66;5212071;27;20624;-75
2024/04/21 07:08:26;;;;;;;7.00;5.20;;;;;;;11.70;47.44;102093.50;5210899;27;20400;-75
2024/04/21 07:10:52;;;;;;;6.00;5.40;;;;;;;10.98;45.29;102090.63;5212726;27;20340;-75
2024/04/21 07:13:17;;;;;;;6.57;5.27;;;;;;;11.22;45.19;102094.81;5212389;27;20267;-76
2024/04/21 07:15:42;;;;;;;6.17;5.03;;;;;;;10.75;45.22;102102.97;5213804;27;20249;-76
2024/04/21 07:18:07;;;;;;;5.93;5.33;;;;;;;11.19;43.94;102099.91;5213330;27;20225;-76
2024/04/21 07:20:33;;;;;;;5.80;5.20;;;;;;;11.11;44.65;102103.19;5209894;27;20284;-75
2024/04/21 07:22:58;;;;;;;11.40;8.50;;;;;;;11.32;44.48;102104.66;5211204;27;20276;-75
2024/04/21 07:25:23;;;;;;;7.47;5.90;;;;;;;11.19;44.38;102113.88;5181703;27;20592;-75
2024/04/21 07:27:49;;;;;;;5.50;4.90;;;;;;;11.60;43.15;102108.06;5210421;27;20615;-76
2024/04/21 07:30:14;;;;;;;5.13;4.63;;;;;;;11.46;42.72;102111.16;5208998;27;20684;-75
2024/04/21 07:32:40;;;;;;;4.90;4.40;;;;;;;11.95;41.99;102108.16;5211825;27;20229;-77
2024/04/21 07:35:06;;;;;;;5.30;4.80;;;;;;;11.83;42.48;102115.63;5212670;27;20651;-76
2024/04/21 07:37:31;;;;;;;6.00;4.40;;;;;;;12.08;40.95;102119.78;5212292;27;20318;-76
2024/04/21 07:39:56;;;;;;;5.40;4.77;;;;;;;12.29;40.18;102116.84;5210499;27;20445;-77
2024/04/21 07:42:22;;;;;;;5.43;4.37;;;;;;;12.23;38.05;102119.28;5210334;27;20345;-76
2024/04/21 07:44:47;;;;;;;6.03;4.27;;;;;;;11.65;38.45;102129.97;5211506;27;20882;-77
2024/04/21 07:47:13;;;;;;;5.23;4.30;;;;;;;11.50;37.90;102124.31;5211031;27;20463;-76
2024/04/21 07:49:39;;;;;;;5.90;5.00;;;;;;;12.21;38.03;102123.63;5210371;27;20241;-76
2024/04/21 07:52:05;;;;;;;5.10;4.20;;;;;;;12.07;37.83;102125.84;5210809;27;20488;-76
2024/04/21 07:54:30;;;;;;;6.57;4.93;;;;;;;12.18;37.73;102121.81;5210164;27;20425;-76
2024/04/21 07:56:55;;;;;;;5.77;4.93;;;;;;;12.39;36.39;102137.13;5211144;27;20229;-76
2024/04/21 07:59:21;;;;;;;4.93;4.30;;;;;;;12.32;37.19;102127.38;5181193;27;20263;-77
2024/04/21 08:01:47;;;;;;;5.83;4.30;;;;;;;12.36;35.56;102131.81;5223064;27;20334;-77
2024/04/21 08:04:13;;;;;;;5.00;3.70;;;;;;;12.53;35.78;102136.56;5245343;27;20766;-75
2024/04/21 08:06:38;;;;;;;4.20;3.80;;;;;;;12.61;35.68;102135.94;5241755;27;20486;-76
2024/04/21 08:09:03;;;;;;;4.07;3.63;;;;;;;12.69;36.04;102132.59;5243149;27;20271;-76
2024/04/21 08:11:28;;;;;;;4.90;3.87;;;;;;;12.33;36.64;102134.38;5333231;22;20273;-82
2024/04/21 08:13:54;;;;;;;6.30;3.90;;;;;;;12.15;36.85;102147.88;5323905;27;20234;-82
2024/04/21 08:16:19;;;;;;;6.40;4.23;;;;;;;12.51;36.35;102138.28;5321237;27;20218;-82
2024/04/21 08:18:44;;;;;;;4.77;4.07;;;;;;;12.90;35.25;102142.69;5323659;27;20269;-83
2024/04/21 08:21:10;;;;;;;5.07;4.13;;;;;;;12.85;35.43;102136.44;5320985;27;20242;-82
2024/04/21 08:23:35;;;;;;;5.70;4.03;;;;;;;12.77;34.92;102137.19;5323283;27;20274;-81
2024/04/21 08:26:03;;;;;;;4.03;3.63;;;;;;;12.96;35.65;102137.56;5323238;27;20316;-82
2024/04/21 08:28:28;;;;;;;4.77;4.10;;;;;;;12.69;34.24;102141.34;5321180;27;20331;-82
2024/04/21 08:30:54;;;;;;;4.80;4.10;;;;;;;12.15;34.62;102149.59;5320334;27;20441;-81
2024/04/21 08:33:19;;;;;;;5.30;3.70;;;;;;;12.43;34.22;102149.47;5321273;27;20660;-82
2024/04/21 08:35:55;;;;;;;4.30;3.70;;;;;;;12.92;34.66;102151.44;5319901;27;20218;-82
2024/04/21 08:38:20;;;;;;;4.70;3.83;;;;;;;12.95;34.03;102157.63;5319118;27;20289;-81
2024/04/21 08:40:49;;;;;;;6.30;4.20;;;;;;;12.81;34.13;102153.81;5319186;27;20477;-82
2024/04/21 08:43:21;;;;;;;5.00;4.50;;;;;;;12.88;34.49;102154.84;5285478;27;20292;-81
2024/04/21 08:45:49;;;;;;;5.43;4.93;;;;;;;12.63;34.04;102149.91;5315561;27;20433;-82
2024/04/21 08:48:17;;;;;;;5.57;4.67;;;;;;;12.21;34.24;102157.59;5315039;27;20442;-83
2024/04/21 08:50:44;;;;;;;5.10;4.60;;;;;;;11.90;34.49;102167.22;5315305;27;20469;-82
2024/04/21 08:53:09;;;;;;;4.03;3.63;;;;;;;12.54;34.59;102162.81;5285815;27;20510;-82
2024/04/21 08:55:38;;;;;;;4.40;3.70;;;;;;;12.54;33.99;102162.81;5315674;27;20449;-84
2024/04/21 08:58:05;;;;;;;4.30;3.63;;;;;;;12.68;33.50;102157.88;5314975;27;20230;-83
2024/04/21 09:00:31;;;;;;;4.37;3.97;;;;;;;12.88;33.63;102160.97;5316601;27;20542;-82
2024/04/21 09:02:57;;;;;;;5.00;4.00;;;;;;;12.43;34.15;102161.63;5314912;27;20551;-82
2024/04/21 09:05:23;;;;;;;5.30;4.10;;;;;;;13.07;33.91;102166.59;5315317;27;20997;-82
2024/04/21 09:07:50;;;;;;;4.40;3.93;;;;;;;12.84;33.79;102163.47;5327839;27;20268;-80
2024/04/21 09:10:16;;;;;;;4.20;3.60;;;;;;;12.81;33.53;102169.50;5325312;27;20230;-80
2024/04/21 09:12:45;;;;;;;5.03;4.13;;;;;;;13.24;32.83;102161.75;5293320;27;20487;-82
2024/04/21 09:15:10;;;;;;;5.77;4.27;;;;;;;13.15;33.74;102172.88;5319040;27;20622;-83
2024/04/21 09:17:36;;;;;;;4.00;3.60;;;;;;;13.28;33.02;102168.81;5320394;27;20452;-83
2024/04/21 09:20:01;;;;;;;4.73;4.10;;;;;;;13.16;32.44;102165.94;5321410;27;20571;-81
2024/04/21 09:22:27;;;;;;;5.03;4.10;;;;;;;13.34;32.89;102166.34;5325997;27;20238;-82
2024/04/21 09:24:53;;;;;;;3.87;3.57;;;;;;;13.56;33.92;102169.44;5324242;27;20241;-80
2024/04/21 09:27:19;;;;;;;4.50;4.10;;;;;;;13.67;32.29;102162.66;5327744;27;21027;-83
2024/04/21 09:29:44;;;;;;;3.97;3.57;;;;;;;13.35;32.20;102169.84;5326530;27;20762;-81
2024/04/21 09:32:13;;;;;;;4.87;4.37;;;;;;;13.43;32.35;102165.66;5325672;27;20274;-80
2024/04/21 09:34:39;;;;;;;4.40;4.00;;;;;;;13.25;32.64;102167.00;5297371;27;20238;-79
2024/04/21 09:37:04;;;;;;;6.17;3.97;;;;;;;13.31;32.91;102158.41;5323407;27;20456;-83
2024/04/21 09:39:30;;;;;;;4.50;3.87;;;;;;;13.51;31.73;102165.84;5291399;27;20425;-80
2024/04/21 09:41:57;;;;;;;7.70;4.20;;;;;;;13.55;32.13;102172.91;5324601;27;20238;-82
2024/04/21 09:44:25;;;;;;;6.07;3.80;;;;;;;13.73;31.68;102167.13;5328139;27;20429;-82
2024/04/21 09:46:52;;;;;;;5.63;4.43;;;;;;;13.90;31.02;102159.63;5325994;27;20703;-82
2024/04/21 09:49:18;;;;;;;4.23;3.77;;;;;;;13.44;30.85;102176.19;5321563;27;20421;-81
2024/04/21 09:51:44;;;;;;;5.33;3.83;;;;;;;14.14;30.27;102164.44;5317770;27;20491;-83
2024/04/21 09:54:19;;;;;;;4.07;3.67;;;;;;;14.30;30.40;102157.69;5317637;27;20433;-83
2024/04/21 09:56:51;;;;;;;4.20;3.80;;;;;;;13.79;30.30;102167.28;5317572;27;20276;-81
2024/04/21 09:59:21;;;;;;;4.33;3.93;;;;;;;13.19;31.37;102179.09;5316926;27;20457;-81
2024/04/21 10:01:48;;;;;;;5.03;4.53;;;;;;;13.08;31.21;102174.53;5316974;27;20515;-81
2024/04/21 10:04:21;;;;;;;5.40;4.90;;;;;;;13.54;32.42;102168.50;5318643;27;20445;-81
2024/04/21 10:06:48;;;;;;;4.50;4.10;;;;;;;13.86;32.13;102171.75;5322345;27;20492;-81
2024/04/21 10:09:17;;;;;;;4.23;3.83;;;;;;;13.73;31.14;102170.63;5320760;27;20433;-82
2024/04/21 10:11:42;;;;;;;4.67;3.50;;;;;;;12.92;30.32;102169.75;5291675;27;20488;-83
2024/04/21 10:14:08;;;;;;;4.57;3.90;;;;;;;12.76;30.57;102172.03;5322399;27;20425;-81
2024/04/21 10:16:39;;;;;;;4.10;3.73;;;;;;;13.55;31.05;102170.28;5324209;27;20265;-81
2024/04/21 10:19:08;;;;;;;5.40;4.33;;;;;;;13.48;30.91;102174.50;5321543;27;20233;-83
2024/04/21 10:21:35;;;;;;;4.13;3.70;;;;;;;13.52;29.78;102173.72;5291584;27;20511;-82
2024/04/21 10:24:00;;;;;;;4.10;3.80;;;;;;;13.64;29.51;102171.34;5291648;27;20513;-82
2024/04/21 10:26:26;;;;;;;3.77;3.47;;;;;;;13.94;29.07;102169.31;5319683;27;20473;-81
2024/04/21 10:28:51;;;;;;;3.80;3.50;;;;;;;13.69;29.72;102183.66;5317240;27;20226;-82
2024/04/21 10:31:26;;;;;;;6.60;3.90;;;;;;;14.85;28.92;102164.72;5319827;27;21115;-81
2024/04/21 10:34:05;;;;;;;4.73;4.13;;;;;;;14.65;29.03;102163.56;5316032;27;20230;-81
2024/04/21 10:36:44;;;;;;;6.00;4.83;;;;;;;14.32;28.33;102171.72;5319220;27;20549;-85
2024/04/21 10:39:10;;;;;;;4.30;3.40;;;;;;;15.23;27.92;102159.13;5321155;27;20449;-82
2024/04/21 10:41:46;;;;;;;3.87;3.57;;;;;;;15.29;28.81;102169.72;5319738;27;20437;-82
2024/04/21 10:44:11;;;;;;;4.30;3.90;;;;;;;15.36;27.71;102165.38;5287970;27;20258;-81
2024/04/21 10:46:37;;;;;;;4.30;3.90;;;;;;;15.63;27.32;102160.47;5318137;27;20478;-81
2024/04/21 10:49:03;;;;;;;4.40;4.00;;;;;;;15.44;27.25;102158.50;5320551;27;20269;-82
2024/04/21 10:51:32;;;;;;;4.00;3.70;;;;;;;14.04;28.38;102163.34;5289630;27;20246;-81
2024/04/21 10:54:02;;;;;;;5.20;4.70;;;;;;;15.21;27.87;102155.56;5331611;26;20226;-79
2024/04/21 10:56:28;;;;;;;4.23;3.83;;;;;;;16.52;26.40;102148.19;5297651;27;20472;-82
2024/04/21 10:58:54;;;;;;;3.90;3.60;;;;;;;16.94;26.66;102149.38;5325960;27;20453;-80
2024/04/21 11:01:19;;;;;;;3.40;3.10;;;;;;;16.73;25.55;102143.06;5320047;27;20298;-81
2024/04/21 11:03:44;;;;;;;3.80;3.50;;;;;;;16.04;25.77;102153.91;5291720;27;20431;-80
2024/04/21 11:06:10;;;;;;;4.00;3.70;;;;;;;15.80;25.61;102149.28;5292541;27;20219;-80
2024/04/21 11:08:36;;;;;;;3.33;3.03;;;;;;;16.54;25.79;102149.97;5291358;27;20232;-80
2024/04/21 11:11:02;;;;;;;3.70;3.40;;;;;;;16.84;25.03;102145.78;5285063;27;20289;-81
2024/04/21 11:13:28;;;;;;;3.67;3.37;;;;;;;17.11;25.90;102142.44;5282406;27;20458;-80
2024/04/21 11:15:53;;;;;;;3.73;3.43;;;;;;;16.35;25.75;102143.69;5285428;27;20235;-79
2024/04/21 11:18:18;;;;;;;3.67;3.37;;;;;;;16.20;26.30;102141.78;5287188;27;20269;-81
2024/04/21 11:20:45;;;;;;;3.80;3.50;;;;;;;16.08;26.46;102145.19;5284764;27;20235;-81
2024/04/21 11:23:13;;;;;;;3.97;3.67;;;;;;;15.64;26.54;102143.84;5255516;27;20227;-80